createdAt,value
2018-09-24T16:01:51.617Z,0.70
2018-09-24T16:04:25.229Z,0.80
2018-09-24T16:06:58.880Z,1.13
2018-09-24T16:09:32.488Z,0.93
2018-09-24T16:12:05.985Z,1.43
2018-09-24T16:14:39.528Z,1.03
2018-09-24T16:17:13.223Z,1.63
2018-09-24T16:19:46.756Z,1.37
2018-09-24T16:22:20.503Z,1.17
2018-09-24T16:24:54.392Z,1.00
2018-09-24T16:27:27.949Z,1.10
2018-09-24T16:30:08.731Z,1.23
2018-09-24T16:32:42.104Z,1.00
2018-09-24T16:35:15.742Z,0.90
2018-09-24T16:37:49.274Z,1.50
2018-09-24T16:40:22.880Z,1.00
2018-09-24T16:42:56.493Z,1.33
2018-09-24T16:45:30.036Z,1.10
2018-09-24T16:48:03.710Z,0.97
2018-09-24T16:50:37.263Z,1.10
2018-09-24T16:53:10.940Z,1.10
2018-09-24T16:55:44.424Z,0.80
2018-09-24T16:58:18.013Z,1.00
2018-09-24T17:00:52.787Z,0.97
2018-09-24T17:03:26.386Z,1.10
2018-09-24T17:06:00.017Z,1.57
2018-09-24T17:08:33.619Z,0.83
2018-09-24T17:11:07.205Z,0.90
2018-09-24T17:13:40.876Z,0.90
2018-09-24T17:16:14.340Z,1.40
2018-09-24T17:18:47.964Z,0.90
2018-09-24T17:21:21.652Z,1.37
2018-09-24T17:23:55.316Z,1.07
2018-09-24T17:26:28.908Z,0.93
2018-09-24T17:29:02.525Z,0.93
2018-09-24T17:31:36.022Z,0.73
2018-09-24T17:34:09.445Z,0.90
2018-09-24T17:36:43.055Z,0.80
2018-09-24T17:39:16.552Z,1.13
2018-09-24T17:41:50.194Z,1.37
2018-09-24T17:44:23.704Z,0.80
2018-09-24T17:46:57.400Z,1.60
2018-09-24T17:49:30.825Z,1.07
2018-09-24T17:52:04.351Z,2.53
2018-09-24T17:54:37.798Z,1.20
2018-09-24T17:57:11.435Z,1.00
2018-09-24T17:59:45.126Z,1.37
2018-09-24T18:02:18.612Z,1.07
2018-09-24T18:04:52.118Z,1.50
2018-09-24T18:07:25.736Z,1.10
2018-09-24T18:09:59.440Z,1.73
2018-09-24T18:12:32.981Z,1.33
2018-09-24T18:15:06.628Z,1.53
2018-09-24T18:17:40.255Z,1.10
2018-09-24T18:20:13.813Z,1.67
2018-09-24T18:22:47.210Z,1.53
2018-09-24T18:25:20.768Z,0.80
2018-09-24T18:27:54.398Z,1.83
2018-09-24T18:30:27.980Z,1.50
2018-09-24T18:33:01.665Z,1.10
2018-09-24T18:35:35.405Z,2.80
2018-09-24T18:38:09.081Z,0.97
2018-09-24T18:40:42.677Z,1.73
2018-09-24T18:43:16.262Z,1.83
2018-09-24T18:45:49.724Z,1.70
2018-09-24T18:48:23.344Z,2.30
2018-09-24T18:50:56.776Z,2.07
2018-09-24T18:53:30.447Z,2.83
2018-09-24T18:56:04.008Z,2.33
2018-09-24T18:58:37.569Z,1.73
2018-09-24T19:01:11.188Z,2.07
2018-09-24T19:03:44.838Z,1.87
2018-09-24T19:06:18.455Z,2.80
2018-09-24T19:08:52.063Z,1.93
2018-09-24T19:11:27.966Z,1.40
2018-09-24T19:13:59.408Z,1.60
2018-09-24T19:16:32.893Z,1.50
2018-09-24T19:19:06.588Z,1.70
2018-09-24T19:21:40.368Z,2.90
2018-09-24T19:24:13.968Z,2.37
2018-09-24T19:26:47.693Z,2.77
2018-09-24T19:29:21.348Z,3.20
2018-09-24T19:31:55.030Z,2.00
2018-09-24T19:34:28.730Z,3.07
2018-09-24T19:37:02.278Z,2.17
2018-09-24T19:39:35.892Z,2.13
2018-09-24T19:42:09.449Z,1.80
2018-09-24T19:44:43.068Z,1.80
2018-09-24T19:47:16.579Z,4.53
2018-09-24T19:49:50.156Z,2.83
2018-09-24T19:52:23.633Z,1.83
2018-09-24T19:54:57.196Z,2.50
2018-09-24T19:57:30.871Z,2.07
2018-09-24T20:00:04.428Z,2.27
2018-09-24T20:02:38.099Z,2.80
2018-09-24T20:05:11.695Z,2.50
2018-09-24T20:07:45.344Z,2.60
2018-09-24T20:10:18.969Z,4.20
2018-09-24T20:12:52.425Z,2.00
2018-09-24T20:15:26.038Z,2.40
2018-09-24T20:17:59.419Z,1.93
2018-09-24T20:20:32.823Z,2.30
2018-09-24T20:23:06.292Z,2.83
2018-09-24T20:25:39.696Z,3.70
2018-09-24T20:28:13.423Z,3.13
2018-09-24T20:30:47.048Z,2.40
2018-09-24T20:33:20.690Z,3.27
2018-09-24T20:35:54.252Z,2.77
2018-09-24T20:38:27.885Z,3.20
2018-09-24T20:41:01.285Z,3.00
2018-09-24T20:43:34.901Z,1.90
2018-09-24T20:46:08.534Z,1.93
2018-09-24T20:48:42.132Z,2.90
2018-09-24T20:51:15.783Z,2.60
2018-09-24T20:53:49.417Z,1.93
2018-09-24T20:56:22.938Z,1.67
2018-09-24T20:58:56.460Z,1.77
2018-09-24T21:01:29.999Z,1.60
2018-09-24T21:04:03.568Z,2.27
2018-09-24T21:06:37.271Z,2.53
2018-09-24T21:09:12.839Z,2.23
2018-09-24T21:11:46.389Z,2.70
2018-09-24T21:14:20.187Z,3.77
2018-09-24T21:16:53.799Z,3.00
2018-09-24T21:19:27.176Z,2.77
2018-09-24T21:22:00.540Z,2.50
2018-09-24T21:24:34.159Z,2.83
2018-09-24T21:27:07.500Z,3.33
2018-09-24T21:29:40.944Z,3.07
2018-09-24T21:32:14.295Z,3.00
2018-09-24T21:34:47.953Z,2.67
2018-09-24T21:37:21.673Z,3.43
2018-09-24T21:39:55.310Z,2.97
2018-09-24T21:42:28.728Z,3.00
2018-09-24T21:45:02.452Z,2.97
2018-09-24T21:47:36.109Z,3.40
2018-09-24T21:50:09.636Z,2.53
2018-09-24T21:52:43.118Z,2.70
2018-09-24T21:55:16.716Z,2.83
2018-09-24T21:57:50.172Z,3.70
